航空気象通報

ウインドサーファーのための航空気象通報による風予報です。

8/31-9/1の航空気象通報(国内、海外)

2012年08月31日 23時46分18秒 | TAF

羽田空港
TAF RJTT 310836Z 3109/0112 18014KT 9999 FEW020 SCT030
     BECMG 3118/3121 12008KT
日本時間31日18時-1日03時:180度から14ノットの風
03-06時:風が変化
06-21時:120度から8ノットの風

静岡空港
TAF RJNS 310842Z 3109/0112 19006KT 9999 FEW010 BKN030
     BECMG 3111/3113 33004KT
     TEMPO 3118/3121 FEW005 BKN008
     BECMG 0100/0103 12010KT
日本時間31日18-20時:190度から6ノットの風
20-22時:風が変化
22時-1日09時:330度から4ノットの風
09-12時:風が変化
12-21時:120度から10ノットの風

福岡空港
TAF RJFF 310839Z 3109/0112 01007KT 9999 FEW020 SCT030
     BECMG 3113/3115 12004KT
     BECMG 0100/0103 02008KT
     BECMG 0109/0112 11005KT
日本時間31日18-22時:010度から7ノットの風
22-24時:風が変化
1日00-09時:120度から4ノットの風
09-12時:風が変化
12-18時:020度から8ノットの風
18-21時:風が変化
21時:110度から5ノットの風

那覇空港
TAF ROAH 310837Z 3109/0112 07007KT 9999 SCT020
日本時間31日18時-1日21時:070度から7ノットの風

マウイのカフルイ空港
PHOG 311138Z 3112/0112 07006KT P6SM SCT050
     FM311800 06010G18KT P6SM SCT050
     FM312100 06018G28KT P6SM FEW030 SCT050
     FM010400 06012KT P6SM FEW030 SCT050
     FM010800 06007KT P6SM SCT050 AMD LTD TO WX VIS AND WIND TIL 311600
ハワイ時間31日02-08時:070度から6ノットの風
08-11時:060度から10ノット、突風18ノット
11-18時:060度から18ノット、突風28ノット
18-22時:060度から12ノットの風
22時-1日02時:060度から7ノットの風

サイパン空港
PGSN 311120Z 3112/0112 22007KT P6SM VCSH SCT018 SCT040 BKN120
マリアナ時間31日22時-1日22時:220度から7ノットの風

コメント
この記事をはてなブックマークに追加

8/28-8/29の航空気象通報(国内、海外)

2012年08月28日 22時59分50秒 | TAF

羽田空港
TAF RJTT 280838Z 2809/2912 18014KT 9999 FEW030
日本時間28日18時-29日21時:180度から14ノットの風

静岡空港
TAF RJNS 280838Z 2809/2912 16006KT 9999 FEW020
     BECMG 2810/2812 30004KT
     BECMG 2900/2903 24010KT
日本時間28日18-19時:160度から6ノットの風
19-21時:風が変化
21時-29日09時:300度から4ノットの風
09-12時:風が変化
12-21時:240度から10ノットの風

福岡空港
TAF RJFF 280847Z 2809/2912 17015KT 8000 -SHRA FEW020 BKN045
     TEMPO 2809/2813 17017G27KT 3000 SHRA BR
     TEMPO 2903/2909 4000 SHRA
日本時間28日18時-29日21時:170度から15ノットの風
但し、28日18-22時の間:ときどき170度から17ノット、突風27ノット

那覇空港
TAF ROAH 280842Z 2809/2912 17019KT 9999 FEW015 SCT025
日本時間28日18時-29日21時:170度から19ノットの風

マウイのカフルイ空港
PHOG 281129Z 2812/2912 05011KT P6SM VCSH FEW025 SCT035 BKN050
     FM282000 05017G23KT P6SM VCSH SCT045
     FM290600 05011KT P6SM SCT030 SCT050 AMD LTD TO WX VIS AND WIND TIL 281600
ハワイ時間28日02-10時:050度から11ノットの風

10-20時:050度から17ノット、突風23ノット
20時-29日02時:050度から11ノットの風

サイパン空港
PGSN 281123Z 2812/2912 11007KT P6SM VCSH FEW018CB SCT050 BKN100
マリアナ時間28日22時-29日22時:110度から7ノットの風

コメント
この記事をはてなブックマークに追加

8/27-8/28の航空気象通報(国内、海外)

2012年08月28日 00時09分06秒 | TAF

羽田空港
TAF RJTT 270838Z 2709/2812 19014KT 9999 FEW030
     BECMG 2718/2721 22004KT
     BECMG 2721/2724 16010KT
日本時間27日18時-28日03時:190度から14ノットの風
03-06時:220度から4ノットの風
06時:220度から4ノットの風
06-09時:風が変化
09-21時:160度から10ノットの風

静岡空港
TAF RJNS 270838Z 2709/2812 15005KT 9999 FEW020
     BECMG 2711/2713 35004KT
     BECMG 2800/2803 16010KT
     BECMG 2809/2812 24005KT
日本時間27日18-20時:150度から5ノットの風
20-22時:風が変化
22時-28日09時:350度から4ノットの風
09-12時:風が変化
12-18時:160度から10ノットの風
18-21時:風が変化
21時:240度から5ノットの風

福岡空港
TAF RJFF 270845Z 2709/2812 11017G30KT 9999 FEW025 BKN045
     TEMPO 2809/2812 SHRA
日本時間27日18時-28日21時:110度から17ノット、突風30ノット

但し、28日18-21時の間:ときどき

那覇空港
TAF AMD ROAH 271208Z 2712/2812 20023G35KT 8000 SCT010 BKN020
日本時間27日21時-28日21時:200度から23ノット、突風35ノット

マウイのカフルイ空港
PHOG 271120Z 2712/2812 05011KT P6SM SCT050
     FM272000 05020G30KT P6SM SCT050
     FM280600 05011KT P6SM SCT050 AMD LTD TO WX VIS AND WIND TIL 271600
ハワイ時間27日02-10時:050度から11ノットの風
10-20時:050度から20ノット、突風30ノット
20時-28日02時:050度から11ノットの風

サイパン空港
PGSN 271142Z 2712/2812 07010KT P6SM VCSH SCT016CB SCT040 BKN120
     FM271800 11010KT P6SM VCSH SCT018 SCT050 BKN120
マリアナ時間27日22時-28日04時:070度から10ノットの風
04-22時:110度から10ノットの風

コメント
この記事をはてなブックマークに追加

8/26-8/27の航空気象通報(国内、海外)

2012年08月26日 21時45分29秒 | TAF

羽田空港
TAF RJTT 260837Z 2609/2712 18010KT 9999 FEW020
日本時間26日18時-26日21時:180度から10ノットの風

静岡空港
TAF RJNS 260844Z 2609/2712 14005KT 9999 FEW015 SCT030
     BECMG 2610/2612 34004KT
     BECMG 2700/2703 14010KT
日本時間26日18-19時:140度から5ノットの風
19-21時:風が変化
21時-27日09時:340度から4ノットの風
09-12時:風が変化
12-21時:140度から10ノットの風

福岡空港
TAF RJFF 260841Z 2609/2712 10010KT 9999 FEW030
     BECMG 2700/2703 12018G30KT
日本時間26日18時-27日09時:100度から10ノットの風
09-12時:風が変化
12-21時:120度から18ノット、突風30ノット

那覇空港
TAF ROAH 260843Z 2609/2712 33050G70KT 4000 SHRA SCT015 FEW020CB BKN025
     TEMPO 2609/2618 1500 +SHRA BKN008 SCT020CB BKN025
     BECMG 2611/2613 26055G75KT
     BECMG 2618/2621 21045G60KT
     TEMPO 2618/2624 1500 +SHRA BKN008 BKN020 SCT025CB
     BECMG 2700/2703 7000 NSW
日本時間26日18-20時:330度から50ノット、突風70ノット
20-22時:風が変化
22時-27日03時:260度から55ノット、突風75ノット
03-06時:風が変化
06-21時:210度から45ノット、突風60ノット
、09-12時の後、

マウイのカフルイ空港
PHOG 261131Z 2612/2712 05010KT P6SM SCT050
     FM261900 05020G30KT P6SM SCT050
     FM270400 05012G20KT P6SM SCT050
     FM270700 05008KT P6SM SCT050 AMD LTD TO WX VIS AND WIND TIL 261600
ハワイ時間26日02-09時:050度から10ノットの風
09-18時:050度から20ノット、突風30ノット
18-21時:050度から12ノット、突風20ノット
21時-27日02時:050度から8ノットの風

サイパン空港
PGSN 261126Z 2612/2712 11010KT P6SM VCSH SCT018 SCT050
     FM270000 12010KT P6SM VCSH SCT015CB BKN040 BKN120
マリアナ時間26日22時-27日10時:110度から10ノットの風

10-22時:120度から10ノットの風

コメント
この記事をはてなブックマークに追加

8/25-8/26の航空気象通報(国内、海外)

2012年08月25日 22時33分13秒 | TAF

羽田空港
TAF RJTT 250839Z 2509/2612 18010KT 9999 FEW030
     BECMG 2516/2518 12004KT
     BECMG 2603/2606 18010KT
日本時間25日18時-26日01時:180度から10ノットの風
01-03時:風が変化
03-12時:120度から4ノットの風
12-15時:風が変化
15-21時:180度から10ノットの風

静岡空港
TAF RJFF 250846Z 2509/2612 08010KT 9999 FEW030
     BECMG 2515/2517 14005KT
     BECMG 2603/2606 08015KT
     TEMPO 2603/2609 08015G25KT
日本時間25日18-24時:080度から10ノットの風
26日00-02時:風が変化
02-12時:140度から5ノットの風
12-15時:風が変化
15-21時:080度から15ノットの風
但し、12-18時の間:080度から15ノット、突風25ノット

福岡空港
TAF RJFF 250846Z 2509/2612 08010KT 9999 FEW030
     BECMG 2515/2517 14005KT
     BECMG 2603/2606 08015KT
     TEMPO 2603/2609 08015G25KT
日本時間25日18-24時:080度から10ノットの風
25日00-02時:風が変化
02-12時:140度から5ノットの風
12-15時:風が変化
15-21時:080度から15ノットの風
但し、26日12-18時の間:ときどき080度から15ノット、突風25ノット

那覇空港
TAF ROAH 250843Z 2509/2612 02025G40KT 9000 FEW020 BKN030
     TEMPO 2514/2603 3000 +SHRA SCT010 BKN020 FEW025CB
     BECMG 2515/2517 02040G55KT
     BECMG 2603/2606 33050G70KT
     TEMPO 2603/2612 1500 +SHRA BKN008 BKN020 SCT025CB
日本時間25日18-24時:040度から25ノット、突風40ノット
25日00-02時:風が変化
02-12時:020度から40ノット、突風55ノット
12-15時:風が変化
15-21時:330度から50ノット、突風70ノット

但し、25日23時-26日12時の間:ときどき
但し、26日12-15時の間:ときどき

マウイのカフルイ空港
PHOG 251120Z 2512/2612 06010G16KT P6SM FEW030
     FM251900 05019G27KT P6SM FEW035 SCT050
     FM260600 05013G19KT P6SM FEW035 AMD LTD TO WX VIS AND WIND TIL 251600
ハワイ時間25日02-09時:090度から5ノットの風

09-20時:060度から15ノット、突風22ノット
20時-25日02時:060度から10ノットの風

サイパン空港
PGSN 251133Z 2512/2612 06010KT P6SM SCT018 BKN120
マリアナ時間25日22時-26日22時:060度から10ノットの風

コメント
この記事をはてなブックマークに追加